createdAt,value
2018-07-03T00:03:48.347Z,1.70
2018-07-03T00:08:51.368Z,1.10
2018-07-03T00:13:54.385Z,1.40
2018-07-03T00:18:57.369Z,1.60
2018-07-03T00:24:00.377Z,1.20
2018-07-03T00:29:04.025Z,1.30
2018-07-03T00:34:07.029Z,1.40
2018-07-03T00:39:10.030Z,1.40
2018-07-03T00:44:13.036Z,1.40
2018-07-03T00:49:16.013Z,1.30
2018-07-03T00:54:19.051Z,1.50
2018-07-03T00:59:22.117Z,1.47
2018-07-03T01:04:25.093Z,1.77
2018-07-03T01:09:28.192Z,1.67
2018-07-03T01:14:31.169Z,1.57
2018-07-03T01:19:34.148Z,1.40
2018-07-03T01:24:37.525Z,1.47
2018-07-03T01:29:40.518Z,1.50
2018-07-03T01:34:43.520Z,1.80
2018-07-03T01:39:46.505Z,1.67
2018-07-03T01:44:50.310Z,1.40
2018-07-03T01:49:53.302Z,2.03
2018-07-03T01:54:56.316Z,2.40
2018-07-03T01:59:59.350Z,1.50
2018-07-03T02:05:02.419Z,1.73
2018-07-03T02:10:05.529Z,1.80
2018-07-03T02:15:08.528Z,1.53
2018-07-03T02:20:11.534Z,2.10
2018-07-03T02:25:14.522Z,2.33
2018-07-03T02:30:17.524Z,1.40
2018-07-03T02:35:22.248Z,1.97
2018-07-03T02:40:25.318Z,1.77
2018-07-03T02:45:28.294Z,2.30
2018-07-03T02:50:31.276Z,2.00
2018-07-03T02:55:34.269Z,1.80
2018-07-03T03:00:37.310Z,2.10
2018-07-03T03:05:40.310Z,1.60
2018-07-03T03:10:43.509Z,1.90
2018-07-03T03:15:46.485Z,2.30
2018-07-03T03:20:49.559Z,2.33
2018-07-03T03:25:52.590Z,2.07
2018-07-03T03:30:55.561Z,2.17
2018-07-03T03:35:58.545Z,3.20
2018-07-03T03:41:01.545Z,2.00
2018-07-03T03:46:04.618Z,2.30
2018-07-03T03:51:07.634Z,2.77
2018-07-03T03:56:10.617Z,2.40
2018-07-03T04:01:13.596Z,2.10
2018-07-03T04:06:16.612Z,2.20
2018-07-03T04:11:19.634Z,1.93
2018-07-03T04:16:22.686Z,2.20
2018-07-03T04:21:25.735Z,3.90
2018-07-03T04:26:28.866Z,2.30
2018-07-03T04:31:31.841Z,2.50
2018-07-03T04:36:34.894Z,2.50
2018-07-03T04:41:38.044Z,2.70
2018-07-03T04:46:41.049Z,2.37
2018-07-03T04:51:45.877Z,2.57
2018-07-03T04:56:50.788Z,3.13
2018-07-03T05:01:53.913Z,2.80
2018-07-03T05:06:57.057Z,3.20
2018-07-03T05:12:00.101Z,3.00
2018-07-03T05:17:03.169Z,2.80
2018-07-03T05:22:06.238Z,3.43
2018-07-03T05:27:09.315Z,3.53
2018-07-03T05:32:12.394Z,3.40
2018-07-03T05:37:15.478Z,3.00
2018-07-03T05:42:18.497Z,3.83
2018-07-03T05:47:21.623Z,2.50
2018-07-03T05:52:24.644Z,3.33
2018-07-03T05:57:27.694Z,3.70
2018-07-03T06:02:30.694Z,3.00
2018-07-03T06:07:33.707Z,3.80
2018-07-03T06:12:36.769Z,3.20
2018-07-03T06:17:39.773Z,3.40
2018-07-03T06:22:42.815Z,3.73
2018-07-03T06:27:45.758Z,3.53
2018-07-03T06:32:48.765Z,3.90
2018-07-03T06:37:51.746Z,3.90
2018-07-03T06:42:54.769Z,2.50
2018-07-03T06:47:58.049Z,2.90
2018-07-03T06:53:01.047Z,2.40
2018-07-03T06:58:04.096Z,3.00
2018-07-03T07:03:07.149Z,2.77
2018-07-03T07:08:10.142Z,2.67
2018-07-03T07:13:13.205Z,2.63
2018-07-03T07:18:16.185Z,2.60
2018-07-03T07:23:19.213Z,2.60
2018-07-03T07:28:22.515Z,2.00
2018-07-03T07:33:25.537Z,2.60
2018-07-03T07:38:28.525Z,2.30
2018-07-03T07:43:31.547Z,2.10
2018-07-03T07:48:34.553Z,2.23
2018-07-03T07:53:37.610Z,1.80
2018-07-03T07:58:40.661Z,1.63
2018-07-03T08:03:43.694Z,1.30
2018-07-03T08:08:46.696Z,1.30
2018-07-03T08:13:49.778Z,1.33
2018-07-03T08:18:52.785Z,1.20
2018-07-03T08:23:55.775Z,1.20
2018-07-03T08:28:58.758Z,1.10
2018-07-03T08:34:01.800Z,1.50
2018-07-03T08:39:08.174Z,1.17
2018-07-03T08:44:11.136Z,0.80
2018-07-03T08:49:14.130Z,1.40
2018-07-03T08:54:17.232Z,1.40
2018-07-03T08:59:20.247Z,1.10
2018-07-03T09:04:23.340Z,1.00
2018-07-03T09:09:26.365Z,0.90
2018-07-03T09:14:29.398Z,1.17
2018-07-03T09:19:32.386Z,1.00
2018-07-03T09:24:35.390Z,0.90
2018-07-03T09:29:38.363Z,1.00
2018-07-03T09:34:41.337Z,1.30
2018-07-03T09:39:44.336Z,0.80
2018-07-03T09:44:47.331Z,1.20
2018-07-03T09:49:50.331Z,1.10
2018-07-03T09:54:53.316Z,1.03
2018-07-03T09:59:56.333Z,1.00
2018-07-03T10:04:59.305Z,0.90
2018-07-03T10:10:02.455Z,1.00
2018-07-03T10:15:05.893Z,0.90
2018-07-03T10:20:08.921Z,0.90
2018-07-03T10:25:11.955Z,1.10
2018-07-03T10:30:14.941Z,1.03
2018-07-03T10:35:17.978Z,1.30
2018-07-03T10:40:21.048Z,0.80
2018-07-03T10:45:24.056Z,1.00
2018-07-03T10:50:27.111Z,0.80
2018-07-03T10:55:30.118Z,1.03
2018-07-03T11:00:33.105Z,0.80
2018-07-03T11:05:36.147Z,1.10
2018-07-03T11:10:39.203Z,0.90
2018-07-03T11:15:42.237Z,1.23
2018-07-03T11:20:45.245Z,1.23
2018-07-03T11:25:48.229Z,1.00
2018-07-03T11:30:51.253Z,1.13
2018-07-03T11:35:54.243Z,0.90
2018-07-03T11:40:57.262Z,1.00
2018-07-03T11:46:00.282Z,1.10
2018-07-03T11:51:03.325Z,1.10
2018-07-03T11:56:06.312Z,1.10
2018-07-03T12:01:09.547Z,0.93
2018-07-03T12:06:12.982Z,1.20
2018-07-03T12:11:17.250Z,1.30
2018-07-03T12:16:21.289Z,1.30
2018-07-03T12:21:24.393Z,2.20
2018-07-03T12:26:27.551Z,1.20
2018-07-03T12:31:31.241Z,1.07
2018-07-03T12:36:34.306Z,0.80
2018-07-03T12:41:37.922Z,0.87
2018-07-03T12:46:41.088Z,1.20
2018-07-03T12:51:44.097Z,0.90
2018-07-03T12:56:47.204Z,0.97
2018-07-03T13:01:50.670Z,0.80
2018-07-03T13:06:53.892Z,2.83
2018-07-03T13:11:57.149Z,0.90
2018-07-03T13:17:00.190Z,1.00
2018-07-03T13:22:03.217Z,0.90
2018-07-03T13:27:06.301Z,1.10
2018-07-03T13:32:09.326Z,1.30
2018-07-03T13:37:12.339Z,1.00
2018-07-03T13:42:15.409Z,0.90
2018-07-03T13:47:18.381Z,1.07
2018-07-03T13:52:21.435Z,1.00
2018-07-03T13:57:24.454Z,0.90
2018-07-03T14:02:27.477Z,0.90
2018-07-03T14:07:30.476Z,1.23
2018-07-03T14:12:33.509Z,1.00
2018-07-03T14:17:36.554Z,1.00
2018-07-03T14:22:39.552Z,1.23
2018-07-03T14:27:42.546Z,1.17
2018-07-03T14:32:45.526Z,1.00
2018-07-03T14:37:48.531Z,1.13
2018-07-03T14:42:51.514Z,1.00
2018-07-03T14:47:54.506Z,1.00
2018-07-03T14:52:57.532Z,0.90
2018-07-03T14:58:00.670Z,1.00
2018-07-03T15:03:03.847Z,0.83
2018-07-03T15:08:06.847Z,1.43
2018-07-03T15:13:09.906Z,1.00
2018-07-03T15:18:13.157Z,0.90
2018-07-03T15:23:16.137Z,1.00
2018-07-03T15:28:19.109Z,0.83
2018-07-03T15:33:22.102Z,1.30
2018-07-03T15:38:25.094Z,1.00
2018-07-03T15:43:28.095Z,1.10
2018-07-03T15:48:31.073Z,0.83
2018-07-03T15:53:34.077Z,0.90
2018-07-03T15:58:37.078Z,0.80
2018-07-03T16:04:08.577Z,1.00
2018-07-03T16:09:13.967Z,0.90
2018-07-03T16:14:17.009Z,0.80
2018-07-03T16:19:25.846Z,0.90
2018-07-03T16:24:28.845Z,1.00
2018-07-03T16:29:31.859Z,1.07
2018-07-03T16:34:34.890Z,1.20
2018-07-03T16:39:38.491Z,0.90
2018-07-03T16:44:41.586Z,1.03
2018-07-03T16:49:44.573Z,0.83
2018-07-03T16:54:47.772Z,0.80
2018-07-03T16:59:50.758Z,0.97
2018-07-03T17:04:53.781Z,1.20
2018-07-03T17:09:56.817Z,1.10
2018-07-03T17:14:59.853Z,0.90
2018-07-03T17:20:02.963Z,0.80
2018-07-03T17:25:06.020Z,1.10
2018-07-03T17:30:09.029Z,1.20
2018-07-03T17:35:12.062Z,0.90
2018-07-03T17:40:32.266Z,1.10
2018-07-03T17:46:01.982Z,1.20
2018-07-03T17:51:05.106Z,1.30
2018-07-03T17:56:08.174Z,1.03
2018-07-03T18:01:13.179Z,1.13
2018-07-03T18:06:16.250Z,1.20
2018-07-03T18:11:19.814Z,1.50
2018-07-03T18:16:22.849Z,1.57
2018-07-03T18:21:25.921Z,1.80
2018-07-03T18:26:28.986Z,2.00
2018-07-03T18:31:32.032Z,2.20
2018-07-03T18:36:35.501Z,1.90
2018-07-03T18:41:38.530Z,2.03
2018-07-03T18:46:41.533Z,2.20
2018-07-03T18:51:44.574Z,1.80
2018-07-03T18:56:47.562Z,2.47
2018-07-03T19:01:50.600Z,2.47
2018-07-03T19:06:54.097Z,2.07
2018-07-03T19:11:57.345Z,2.17
2018-07-03T19:17:00.349Z,2.30
2018-07-03T19:22:03.540Z,1.87
2018-07-03T19:27:06.847Z,2.60
2018-07-03T19:32:09.911Z,2.47
2018-07-03T19:37:12.978Z,1.97
2018-07-03T19:42:16.059Z,2.37
2018-07-03T19:47:19.283Z,2.70
2018-07-03T19:52:22.467Z,2.90
2018-07-03T19:57:25.675Z,2.37
2018-07-03T20:02:28.728Z,2.57
2018-07-03T20:07:31.801Z,2.30
2018-07-03T20:12:34.801Z,2.73
2018-07-03T20:17:37.845Z,2.60
2018-07-03T20:22:40.889Z,2.67
2018-07-03T20:27:43.914Z,3.27
2018-07-03T20:32:47.108Z,2.47
2018-07-03T20:37:53.189Z,2.73
2018-07-03T20:42:57.250Z,2.60
2018-07-03T20:48:00.229Z,2.67
2018-07-03T20:53:03.262Z,2.87
2018-07-03T20:58:06.709Z,2.80
2018-07-03T21:03:09.685Z,2.53
2018-07-03T21:08:12.675Z,2.73
2018-07-03T21:13:15.929Z,2.50
2018-07-03T21:18:18.923Z,3.67
2018-07-03T21:23:21.902Z,3.70
2018-07-03T21:28:24.889Z,2.50
2018-07-03T21:33:27.885Z,2.30
2018-07-03T21:38:30.901Z,2.63
2018-07-03T21:43:33.886Z,2.27
2018-07-03T21:48:36.856Z,2.03
2018-07-03T21:53:39.827Z,2.47
2018-07-03T21:58:42.800Z,2.57
2018-07-03T22:03:45.841Z,2.17
2018-07-03T22:08:48.885Z,2.17
2018-07-03T22:13:51.903Z,2.30
2018-07-03T22:18:54.910Z,2.27
2018-07-03T22:23:58.007Z,2.30
2018-07-03T22:29:01.032Z,2.80
2018-07-03T22:34:04.025Z,2.30
2018-07-03T22:39:08.140Z,4.87
2018-07-03T22:44:11.097Z,2.60
2018-07-03T22:49:14.075Z,2.50
2018-07-03T22:54:17.038Z,2.53
2018-07-03T22:59:19.997Z,2.47
2018-07-03T23:04:22.966Z,3.00
2018-07-03T23:09:25.946Z,2.67
2018-07-03T23:14:28.953Z,3.50
2018-07-03T23:19:31.917Z,2.80
2018-07-03T23:24:34.888Z,2.63
2018-07-03T23:29:37.870Z,2.77
2018-07-03T23:34:41.282Z,2.93
2018-07-03T23:39:44.260Z,3.10
2018-07-03T23:44:47.261Z,3.17
2018-07-03T23:50:07.581Z,3.40
2018-07-03T23:55:27.799Z,3.10
